Stevinson, California
Current Conditions -  °F | °C
As of 2:35 AM on Thursday 18 Dec 2014 (Local Time) from KMER Reporting Station
Overcast Overcast  
Wind Chill: 50°   Ceiling: 6000
Heat Index: 50°   Visibility: 10mi
Dew Point: 50°   Wind: 6mph
Humidity: 100%   Direction: 170°S
Pressure: 30.12"   Gusts: NA
Location:  37.33°N, 120.85°W
Report Text: KMER 181035Z AUTO 17005KT 10SM OVC060 10/10 A3012 RMK AO1
Loading
Personal Weather Stations






























Interactive Weather Map New forecast layout! Learn more

10-Day Weather Forecast

Advertisements
Track Severe Weather on mobile